createdAt,value
2016-02-25T00:00:21.695Z,66.52
2016-02-25T00:01:21.699Z,66.61
2016-02-25T00:02:21.717Z,66.61
2016-02-25T00:03:21.734Z,66.23
2016-02-25T00:04:21.754Z,66.42
2016-02-25T00:05:21.756Z,66.52
2016-02-25T00:06:21.790Z,66.04
2016-02-25T00:07:21.792Z,66.14
2016-02-25T00:08:21.811Z,66.52
2016-02-25T00:09:21.814Z,66.33
2016-02-25T00:10:21.832Z,66.23
2016-02-25T00:11:21.851Z,66.42
2016-02-25T00:12:21.869Z,66.23
2016-02-25T00:13:21.886Z,65.95
2016-02-25T00:14:21.906Z,66.23
2016-02-25T00:15:21.908Z,66.14
2016-02-25T00:16:21.927Z,66.04
2016-02-25T00:17:21.945Z,65.95
2016-02-25T00:18:21.963Z,66.61
2016-02-25T00:19:21.982Z,66.14
2016-02-25T00:20:21.984Z,65.95
2016-02-25T00:21:22.019Z,66.14
2016-02-25T00:22:22.036Z,66.33
2016-02-25T00:23:22.038Z,65.95
2016-02-25T00:24:22.057Z,66.33
2016-02-25T00:25:22.060Z,66.33
2016-02-25T00:26:22.126Z,66.23
2016-02-25T00:27:22.097Z,66.52
2016-02-25T00:28:22.115Z,66.61
2016-02-25T00:29:22.133Z,65.95
2016-02-25T00:30:22.136Z,66.14
2016-02-25T00:31:22.154Z,65.95
2016-02-25T00:32:22.173Z,66.61
2016-02-25T00:33:22.190Z,66.8
2016-02-25T00:34:22.209Z,66.04
2016-02-25T00:35:22.228Z,65.75
2016-02-25T00:36:22.230Z,66.04
2016-02-25T00:37:22.249Z,66.23
2016-02-25T00:38:22.267Z,65.95
2016-02-25T00:39:22.270Z,66.33
2016-02-25T00:40:22.288Z,66.33
2016-02-25T00:41:22.322Z,66.52
2016-02-25T00:42:22.325Z,66.23
2016-02-25T00:43:22.342Z,66.99
2016-02-25T00:44:22.345Z,66.8
2016-02-25T00:45:22.364Z,66.52
2016-02-25T00:46:22.382Z,66.33
2016-02-25T00:47:22.401Z,66.33
2016-02-25T00:48:22.419Z,66.2
2016-02-25T00:49:22.438Z,66.8
2016-02-25T00:50:22.440Z,66.2
2016-02-25T00:51:22.458Z,66.04
2016-02-25T00:52:22.477Z,66.33
2016-02-25T00:53:22.494Z,66.33
2016-02-25T00:54:22.497Z,66.33
2016-02-25T00:55:22.515Z,66.23
2016-02-25T00:56:22.534Z,66.39
2016-02-25T00:57:22.552Z,66.01
2016-02-25T00:58:22.555Z,66.29
2016-02-25T00:59:35.307Z,66.14
2016-02-25T01:00:22.592Z,66.2
2016-02-25T01:01:22.610Z,66.2
2016-02-25T01:02:22.628Z,66.1
2016-02-25T01:03:22.631Z,66.58
2016-02-25T01:04:22.649Z,66.52
2016-02-25T01:05:22.667Z,66.1
2016-02-25T01:06:22.670Z,66.86
2016-02-25T01:07:22.907Z,66.2
2016-02-25T01:08:22.707Z,66.52
2016-02-25T01:09:22.725Z,66.58
2016-02-25T01:10:22.790Z,66.23
2016-02-25T01:11:22.762Z,66.52
2016-02-25T01:12:22.608Z,66.2
2016-02-25T01:13:22.783Z,66.29
2016-02-25T01:14:22.801Z,66.39
2016-02-25T01:15:22.819Z,66.48
2016-02-25T01:16:22.822Z,66.29
2016-02-25T01:17:22.841Z,66.39
2016-02-25T01:18:22.858Z,66.48
2016-02-25T01:19:22.877Z,66.39
2016-02-25T01:20:22.880Z,66.86
2016-02-25T01:21:22.899Z,66.86
2016-02-25T01:22:23.010Z,66.77
2016-02-25T01:23:22.935Z,66.39
2016-02-25T01:24:22.953Z,66.77
2016-02-25T01:25:22.971Z,66.86
2016-02-25T01:26:22.974Z,66.77
2016-02-25T01:27:22.993Z,66.29
2016-02-25T01:28:23.011Z,66.48
2016-02-25T01:29:23.029Z,66.77
2016-02-25T01:30:23.032Z,66.48
2016-02-25T01:31:23.050Z,67.24
2016-02-25T01:32:23.068Z,66.96
2016-02-25T01:33:23.087Z,67.05
2016-02-25T01:34:23.090Z,67.05
2016-02-25T01:35:23.123Z,66.86
2016-02-25T01:36:23.126Z,67.05
2016-02-25T01:37:23.145Z,66.96
2016-02-25T01:38:23.162Z,66.48
2016-02-25T01:39:23.165Z,66.67
2016-02-25T01:40:23.184Z,66.58
2016-02-25T01:41:23.203Z,66.96
2016-02-25T01:42:23.220Z,66.39
2016-02-25T01:43:23.223Z,66.58
2016-02-25T01:44:23.242Z,66.77
2016-02-25T01:45:23.260Z,66.86
2016-02-25T01:46:23.278Z,66.67
2016-02-25T01:47:23.280Z,66.67
2016-02-25T01:48:23.299Z,66.77
2016-02-25T01:49:23.317Z,67.05
2016-02-25T01:50:23.320Z,66.67
2016-02-25T01:51:23.339Z,66.67
2016-02-25T01:52:23.372Z,66.48
2016-02-25T01:53:23.375Z,66.77
2016-02-25T01:54:23.393Z,66.67
2016-02-25T01:55:23.411Z,66.67
2016-02-25T01:56:23.414Z,66.67
2016-02-25T01:57:23.432Z,66.39
2016-02-25T01:58:23.451Z,66.67
2016-02-25T01:59:23.469Z,66.48
2016-02-25T02:00:23.471Z,66.86
2016-02-25T02:01:23.506Z,66.29
2016-02-25T02:02:23.509Z,67.05
2016-02-25T02:03:23.527Z,66.48
2016-02-25T02:04:23.530Z,66.39
2016-02-25T02:05:23.548Z,66.39
2016-02-25T02:06:23.595Z,66.77
2016-02-25T02:07:23.705Z,66.39
2016-02-25T02:08:23.610Z,66.67
2016-02-25T02:09:23.635Z,66.39
2016-02-25T02:10:23.631Z,66.58
2016-02-25T02:11:23.633Z,66.29
2016-02-25T02:12:23.652Z,66.86
2016-02-25T02:13:23.669Z,66.96
2016-02-25T02:14:23.672Z,66.86
2016-02-25T02:15:23.691Z,66.2
2016-02-25T02:16:23.710Z,66.67
2016-02-25T02:17:23.727Z,66.67
2016-02-25T02:18:23.746Z,66.86
2016-02-25T02:19:23.749Z,66.77
2016-02-25T02:20:23.799Z,66.77
2016-02-25T02:21:23.786Z,66.77
2016-02-25T02:22:23.851Z,66.48
2016-02-25T02:23:23.804Z,66.39
2016-02-25T02:24:23.821Z,66.29
2016-02-25T02:25:23.843Z,66.67
2016-02-25T02:26:23.861Z,66.77
2016-02-25T02:27:23.864Z,66.67
2016-02-25T02:28:23.882Z,66.39
2016-02-25T02:29:23.901Z,67.05
2016-02-25T02:30:23.903Z,66.86
2016-02-25T02:31:23.937Z,67.05
2016-02-25T02:32:23.940Z,66.67
2016-02-25T02:33:23.959Z,66.58
2016-02-25T02:34:23.976Z,66.86
2016-02-25T02:35:23.995Z,67.05
2016-02-25T02:36:23.998Z,66.67
2016-02-25T02:37:24.016Z,66.48
2016-02-25T02:38:24.019Z,66.58
2016-02-25T02:39:24.053Z,66.86
2016-02-25T02:40:24.055Z,66.86
2016-02-25T02:41:24.073Z,66.77
2016-02-25T02:42:24.092Z,66.86
2016-02-25T02:43:24.095Z,66.67
2016-02-25T02:44:24.128Z,66.86
2016-02-25T02:45:24.130Z,67.05
2016-02-25T02:46:24.150Z,66.96
2016-02-25T02:47:24.152Z,66.86
2016-02-25T02:48:24.171Z,66.86
2016-02-25T02:49:24.188Z,66.77
2016-02-25T02:50:24.191Z,67.05
2016-02-25T02:51:24.225Z,67.05
2016-02-25T02:52:24.227Z,67.05
2016-02-25T02:53:24.246Z,67.14
2016-02-25T02:54:24.265Z,67.05
2016-02-25T02:55:24.268Z,67.05
2016-02-25T02:56:24.301Z,67.33
2016-02-25T02:57:24.304Z,67.52
2016-02-25T02:58:24.322Z,67.05
2016-02-25T02:59:24.325Z,67.33
2016-02-25T03:00:24.342Z,67.43
2016-02-25T03:01:24.345Z,67.33
2016-02-25T03:02:24.379Z,67.24
2016-02-25T03:03:24.382Z,67.62
2016-02-25T03:04:24.400Z,67.43
2016-02-25T03:05:24.425Z,67.52
2016-02-25T03:06:24.427Z,67.33
2016-02-25T03:07:24.460Z,67.33
2016-02-25T03:08:24.464Z,67.62
2016-02-25T03:09:24.528Z,67.05
2016-02-25T03:10:24.481Z,67.43
2016-02-25T03:11:24.503Z,67.33
2016-02-25T03:12:24.536Z,67.33
2016-02-25T03:13:24.539Z,67.24
2016-02-25T03:14:24.541Z,67.43
2016-02-25T03:15:24.561Z,67.3
2016-02-25T03:16:24.579Z,67.3
2016-02-25T03:17:24.582Z,67.05
2016-02-25T03:18:24.599Z,67.21
2016-02-25T03:19:24.618Z,67.49
2016-02-25T03:20:24.636Z,67.58
2016-02-25T03:21:24.638Z,67.43
2016-02-25T03:22:24.658Z,67.4
2016-02-25T03:23:24.676Z,67.4
2016-02-25T03:24:24.679Z,67.49
2016-02-25T03:25:24.712Z,67.49
2016-02-25T03:26:24.715Z,67.49
2016-02-25T03:27:24.733Z,67.52
2016-02-25T03:28:24.751Z,67.49
2016-02-25T03:29:24.769Z,67.62
2016-02-25T03:30:24.773Z,67.3
2016-02-25T03:31:24.790Z,67.4
2016-02-25T03:32:24.809Z,67.4
2016-02-25T03:33:24.812Z,67.4
2016-02-25T03:34:24.831Z,67.4
2016-02-25T03:35:24.864Z,67.3
2016-02-25T03:36:24.851Z,67.4
2016-02-25T03:37:24.886Z,67.4
2016-02-25T03:38:24.888Z,67.3
2016-02-25T03:39:24.905Z,67.11
2016-02-25T03:40:24.908Z,67.49
2016-02-25T03:41:24.927Z,67.3
2016-02-25T03:42:24.945Z,68.06
2016-02-25T03:43:24.964Z,67.4
2016-02-25T03:44:24.967Z,67.4
2016-02-25T03:45:25.032Z,67.11
2016-02-25T03:46:25.000Z,67.21
2016-02-25T03:47:25.018Z,67.11
2016-02-25T03:48:25.037Z,67.11
2016-02-25T03:49:25.040Z,68.15
2016-02-25T03:50:25.058Z,67.11
2016-02-25T03:51:25.076Z,67.11
2016-02-25T03:52:25.079Z,67.21
2016-02-25T03:53:25.096Z,67.02
2016-02-25T03:54:25.116Z,67.11
2016-02-25T03:55:25.118Z,67.21
2016-02-25T03:56:25.152Z,68.25
2016-02-25T03:57:25.154Z,67.21
2016-02-25T03:58:25.173Z,67.3
2016-02-25T03:59:25.192Z,67.3
2016-02-25T04:00:25.194Z,67.4
2016-02-25T04:01:25.212Z,67.11
2016-02-25T04:02:25.231Z,67.11
2016-02-25T04:03:25.234Z,67.11
2016-02-25T04:04:25.251Z,67.11
2016-02-25T04:05:25.273Z,67.4
2016-02-25T04:06:25.275Z,67.21
2016-02-25T04:07:25.310Z,67.3
2016-02-25T04:08:25.312Z,67.11
2016-02-25T04:09:25.330Z,67.21
2016-02-25T04:10:25.350Z,67.21
2016-02-25T04:11:25.352Z,67.4
2016-02-25T04:12:25.370Z,67.3
2016-02-25T04:13:25.372Z,68.15
2016-02-25T04:14:25.391Z,67.49
2016-02-25T04:15:25.409Z,67.3
2016-02-25T04:16:25.459Z,67.3
2016-02-25T04:17:25.430Z,67.49
2016-02-25T04:18:25.449Z,67.68
2016-02-25T04:19:25.467Z,67.49
2016-02-25T04:20:25.486Z,67.77
2016-02-25T04:21:25.488Z,67.49
2016-02-25T04:22:25.521Z,67.49
2016-02-25T04:23:25.524Z,67.68
2016-02-25T04:24:25.543Z,67.58
2016-02-25T04:25:25.560Z,67.49
2016-02-25T04:26:25.563Z,67.96
2016-02-25T04:27:25.583Z,68.06
2016-02-25T04:28:25.601Z,67.96
2016-02-25T04:29:25.603Z,67.96
2016-02-25T04:30:25.621Z,67.58
2016-02-25T04:31:25.640Z,67.87
2016-02-25T04:32:25.642Z,67.68
2016-02-25T04:33:25.661Z,67.96
2016-02-25T04:34:25.679Z,67.96
2016-02-25T04:35:25.697Z,67.96
2016-02-25T04:36:25.700Z,67.96
2016-02-25T04:37:25.718Z,67.77
2016-02-25T04:38:25.737Z,67.96
2016-02-25T04:39:25.739Z,67.77
2016-02-25T04:40:25.758Z,67.77
2016-02-25T04:41:25.776Z,68.35
2016-02-25T04:42:25.795Z,67.68
2016-02-25T04:43:25.797Z,67.68
2016-02-25T04:44:25.815Z,67.87
2016-02-25T04:45:25.834Z,67.87
2016-02-25T04:46:25.852Z,68.35
2016-02-25T04:47:25.855Z,67.87
2016-02-25T04:48:25.873Z,67.68
2016-02-25T04:49:25.891Z,67.68
2016-02-25T04:50:25.910Z,67.77
2016-02-25T04:51:25.913Z,67.68
2016-02-25T04:52:25.931Z,67.87
2016-02-25T04:53:25.808Z,67.77
2016-02-25T04:54:25.951Z,68.06
2016-02-25T04:55:25.970Z,67.77
2016-02-25T04:56:25.973Z,67.87
2016-02-25T04:57:25.990Z,67.68
2016-02-25T04:58:26.040Z,67.87
2016-02-25T04:59:26.043Z,67.96
2016-02-25T05:00:26.046Z,68.25
2016-02-25T05:01:26.049Z,68.25
2016-02-25T05:02:26.067Z,68.06
2016-02-25T05:03:26.085Z,67.87
2016-02-25T05:04:26.088Z,68.15
2016-02-25T05:05:26.106Z,68.35
2016-02-25T05:06:26.125Z,68.06
2016-02-25T05:07:26.128Z,67.87
2016-02-25T05:08:26.146Z,68.54
2016-02-25T05:09:26.164Z,68.25
2016-02-25T05:10:26.182Z,68.44
2016-02-25T05:11:26.201Z,68.25
2016-02-25T05:12:26.203Z,68.06
2016-02-25T05:13:26.222Z,67.96
2016-02-25T05:14:26.224Z,68.25
2016-02-25T05:15:26.243Z,68.25
2016-02-25T05:16:26.261Z,68.44
2016-02-25T05:17:27.248Z,68.35
2016-02-25T05:18:26.282Z,68.35
2016-02-25T05:19:26.300Z,68.35
2016-02-25T05:20:26.303Z,68.25
2016-02-25T05:21:26.322Z,68.35
2016-02-25T05:22:26.339Z,68.15
2016-02-25T05:23:26.358Z,68.15
2016-02-25T05:24:26.361Z,67.87
2016-02-25T05:25:26.394Z,67.87
2016-02-25T05:26:26.397Z,67.87
2016-02-25T05:27:26.416Z,68.06
2016-02-25T05:28:26.418Z,68.06
2016-02-25T05:29:26.437Z,68.63
2016-02-25T05:30:26.455Z,68.25
2016-02-25T05:31:26.474Z,67.96
2016-02-25T05:32:26.476Z,68.06
2016-02-25T05:33:26.493Z,69.1
2016-02-25T05:34:26.513Z,68.15
2016-02-25T05:35:26.515Z,68.06
2016-02-25T05:36:26.534Z,67.96
2016-02-25T05:37:26.537Z,68.91
2016-02-25T05:38:26.554Z,67.96
2016-02-25T05:39:26.573Z,68.63
2016-02-25T05:40:26.592Z,67.96
2016-02-25T05:41:26.610Z,68.06
2016-02-25T05:42:26.612Z,67.87
2016-02-25T05:43:26.630Z,68.06
2016-02-25T05:44:26.648Z,68.25
2016-02-25T05:45:26.651Z,68.44
2016-02-25T05:46:26.670Z,68.06
2016-02-25T05:47:26.688Z,69.01
2016-02-25T05:48:26.706Z,68.54
2016-02-25T05:49:26.708Z,68.35
2016-02-25T05:50:26.727Z,68.15
2016-02-25T05:51:26.730Z,68.15
2016-02-25T05:52:26.749Z,69.2
2016-02-25T05:53:26.766Z,68.35
2016-02-25T05:54:26.786Z,68.35
2016-02-25T05:55:26.787Z,69.01
2016-02-25T05:56:26.806Z,68.35
2016-02-25T05:57:26.824Z,68.35
2016-02-25T05:58:26.843Z,69.1
2016-02-25T05:59:26.846Z,68.91
2016-02-25T06:00:26.864Z,68.91
2016-02-25T06:01:26.882Z,69.01
2016-02-25T06:02:26.884Z,68.91
2016-02-25T06:03:26.903Z,69.01
2016-02-25T06:04:26.921Z,68.82
2016-02-25T06:05:26.924Z,68.82
2016-02-25T06:06:26.943Z,68.91
2016-02-25T06:07:26.976Z,68.82
2016-02-25T06:08:26.979Z,68.91
2016-02-25T06:09:26.981Z,68.91
2016-02-25T06:10:27.001Z,68.82
2016-02-25T06:11:27.018Z,68.82
2016-02-25T06:12:27.021Z,68.91
2016-02-25T06:13:27.055Z,68.82
2016-02-25T06:14:27.058Z,68.82
2016-02-25T06:15:27.061Z,68.91
2016-02-25T06:16:27.078Z,68.63
2016-02-25T06:17:27.112Z,68.73
2016-02-25T06:18:27.115Z,68.73
2016-02-25T06:19:27.134Z,68.73
2016-02-25T06:20:27.152Z,68.82
2016-02-25T06:21:27.170Z,68.73
2016-02-25T06:22:27.158Z,68.73
2016-02-25T06:23:27.175Z,68.73
2016-02-25T06:24:27.194Z,68.91
2016-02-25T06:25:27.213Z,68.73
2016-02-25T06:26:27.215Z,68.91
2016-02-25T06:27:27.233Z,68.73
2016-02-25T06:28:27.236Z,68.73
2016-02-25T06:29:27.255Z,69.01
2016-02-25T06:30:27.257Z,69.01
2016-02-25T06:31:27.291Z,68.82
2016-02-25T06:32:27.293Z,69.01
2016-02-25T06:33:27.296Z,69.1
2016-02-25T06:34:27.330Z,69.01
2016-02-25T06:35:27.348Z,69.01
2016-02-25T06:36:27.367Z,68.91
2016-02-25T06:37:27.370Z,68.63
2016-02-25T06:38:27.387Z,68.82
2016-02-25T06:39:27.390Z,69.38
2016-02-25T06:40:27.409Z,68.82
2016-02-25T06:41:27.427Z,68.91
2016-02-25T06:42:27.429Z,69.67
2016-02-25T06:43:27.448Z,68.91
2016-02-25T06:44:27.466Z,69.01
2016-02-25T06:45:27.470Z,69.01
2016-02-25T06:46:27.503Z,69.2
2016-02-25T06:47:27.490Z,69.96
2016-02-25T06:48:27.509Z,69.29
2016-02-25T06:49:27.527Z,69.29
2016-02-25T06:50:27.545Z,69.1
2016-02-25T06:51:27.563Z,69.48
2016-02-25T06:52:27.582Z,69.2
2016-02-25T06:53:27.584Z,69.2
2016-02-25T06:54:27.603Z,69.2
2016-02-25T06:55:27.653Z,69.29
2016-02-25T06:56:27.623Z,69.29
2016-02-25T06:57:27.642Z,69.2
2016-02-25T06:58:27.645Z,69.01
2016-02-25T06:59:27.658Z,69.1
2016-02-25T07:00:27.677Z,69.29
2016-02-25T07:01:27.664Z,69.48
2016-02-25T07:02:27.651Z,69.57
2016-02-25T07:03:27.655Z,70.34
2016-02-25T07:04:27.678Z,69.57
2016-02-25T07:05:27.521Z,69.96
2016-02-25T07:06:27.665Z,69.38
2016-02-25T07:07:27.678Z,69.67
2016-02-25T07:08:27.691Z,70.05
2016-02-25T07:09:27.721Z,69.48
2016-02-25T07:10:27.706Z,69.86
2016-02-25T07:11:27.723Z,70.05
2016-02-25T07:12:27.739Z,69.96
2016-02-25T07:13:27.756Z,69.96
2016-02-25T07:14:27.773Z,69.67
2016-02-25T07:15:27.775Z,69.96
2016-02-25T07:16:27.791Z,70.15
2016-02-25T07:17:27.810Z,70.05
2016-02-25T07:18:27.811Z,70.15
2016-02-25T07:19:27.829Z,69.86
2016-02-25T07:20:27.831Z,70.05
2016-02-25T07:21:27.851Z,69.67
2016-02-25T07:22:27.884Z,69.86
2016-02-25T07:23:27.903Z,69.96
2016-02-25T07:24:27.937Z,70.05
2016-02-25T07:25:27.907Z,69.86
2016-02-25T07:26:27.941Z,70.15
2016-02-25T07:27:27.929Z,69.96
2016-02-25T07:28:27.963Z,69.38
2016-02-25T07:29:27.965Z,69.67
2016-02-25T07:30:27.968Z,69.57
2016-02-25T07:31:27.986Z,69.29
2016-02-25T07:32:28.005Z,69.2
2016-02-25T07:33:28.024Z,69.2
2016-02-25T07:34:28.026Z,69.1
2016-02-25T07:35:28.044Z,69.48
2016-02-25T07:36:28.062Z,69.29
2016-02-25T07:37:28.065Z,69.33
2016-02-25T07:38:28.084Z,69.29
2016-02-25T07:39:28.102Z,69.13
2016-02-25T07:40:28.104Z,69.42
2016-02-25T07:41:28.123Z,69.33
2016-02-25T07:42:28.156Z,69.33
2016-02-25T07:43:28.143Z,69.42
2016-02-25T07:44:28.162Z,69.71
2016-02-25T07:45:28.212Z,69.33
2016-02-25T07:46:28.198Z,69.04
2016-02-25T07:47:28.217Z,68.95
2016-02-25T07:48:28.220Z,69.23
2016-02-25T07:49:28.238Z,69.04
2016-02-25T07:50:28.256Z,69.13
2016-02-25T07:51:28.289Z,68.76
2016-02-25T07:52:28.278Z,68.76
2016-02-25T07:53:28.295Z,68.95
2016-02-25T07:54:28.330Z,68.38
2016-02-25T07:55:28.316Z,68.1
2016-02-25T07:56:28.350Z,68.29
2016-02-25T07:57:28.369Z,68.38
2016-02-25T07:58:28.355Z,68.38
2016-02-25T07:59:28.391Z,68.57
2016-02-25T08:00:28.393Z,68.48
2016-02-25T08:01:28.411Z,68.79
2016-02-25T08:02:28.413Z,68.1
2016-02-25T08:03:28.432Z,67.71
2016-02-25T08:04:28.466Z,68.23
2016-02-25T08:05:28.469Z,67.9
2016-02-25T08:06:28.502Z,67.33
2016-02-25T08:07:28.505Z,67.14
2016-02-25T08:08:28.507Z,67.33
2016-02-25T08:09:28.526Z,67.14
2016-02-25T08:10:28.529Z,67.33
2016-02-25T08:11:28.548Z,67.43
2016-02-25T08:12:28.565Z,67.71
2016-02-25T08:13:28.584Z,68
2016-02-25T08:14:28.587Z,68.29
2016-02-25T08:15:28.604Z,68.19
2016-02-25T08:16:28.623Z,68.29
2016-02-25T08:17:28.625Z,68.29
2016-02-25T08:18:28.644Z,68
2016-02-25T08:19:28.662Z,68.1
2016-02-25T08:20:28.680Z,68.38
2016-02-25T08:21:28.684Z,68.29
2016-02-25T08:22:28.717Z,68.38
2016-02-25T08:23:28.720Z,68.76
2016-02-25T08:24:28.738Z,68.66
2016-02-25T08:25:28.741Z,68.1
2016-02-25T08:26:28.759Z,68.1
2016-02-25T08:27:28.778Z,68
2016-02-25T08:28:28.797Z,68.57
2016-02-25T08:29:28.814Z,68.29
2016-02-25T08:30:28.817Z,68.95
2016-02-25T08:31:28.835Z,69.04
2016-02-25T08:32:28.854Z,69.71
2016-02-25T08:33:28.856Z,68.66
2016-02-25T08:34:28.874Z,68.76
2016-02-25T08:35:28.893Z,68.66
2016-02-25T08:36:28.911Z,69.23
2016-02-25T08:37:28.914Z,69.33
2016-02-25T08:38:28.933Z,69.33
2016-02-25T08:39:28.951Z,69.42
2016-02-25T08:40:28.954Z,69.13
2016-02-25T08:41:28.988Z,68.95
2016-02-25T08:42:28.990Z,68.95
2016-02-25T08:43:29.008Z,68.76
2016-02-25T08:44:29.012Z,68.85
2016-02-25T08:45:29.045Z,69.04
2016-02-25T08:46:29.048Z,69.13
2016-02-25T08:47:29.066Z,69.9
2016-02-25T08:48:29.084Z,69.13
2016-02-25T08:49:29.087Z,69.33
2016-02-25T08:50:29.120Z,69.52
2016-02-25T08:51:29.123Z,69.33
2016-02-25T08:52:29.126Z,69.36
2016-02-25T08:53:29.144Z,69.23
2016-02-25T08:54:29.178Z,69.33
2016-02-25T08:55:29.181Z,69.33
2016-02-25T08:56:29.200Z,69.08
2016-02-25T08:57:29.218Z,69.27
2016-02-25T08:58:29.220Z,69.27
2016-02-25T08:59:29.239Z,68.98
2016-02-25T09:00:29.241Z,69.36
2016-02-25T09:01:29.635Z,69.08
2016-02-25T09:02:29.278Z,68.98
2016-02-25T09:03:29.296Z,68.98
2016-02-25T09:04:29.299Z,68.89
2016-02-25T09:05:29.318Z,68.89
2016-02-25T09:06:29.336Z,69.08
2016-02-25T09:07:29.355Z,69.46
2016-02-25T09:08:29.357Z,69.36
2016-02-25T09:09:29.374Z,69.74
2016-02-25T09:10:29.393Z,68.7
2016-02-25T09:11:29.412Z,68.89
2016-02-25T09:12:29.430Z,69.08
2016-02-25T09:13:29.448Z,68.98
2016-02-25T09:14:29.451Z,68.32
2016-02-25T09:15:29.453Z,68.7
2016-02-25T09:16:29.487Z,68.13
2016-02-25T09:17:29.506Z,68.23
2016-02-25T09:18:29.509Z,68.32
2016-02-25T09:19:29.543Z,68.98
2016-02-25T09:20:29.546Z,68.79
2016-02-25T09:21:29.564Z,69.17
2016-02-25T09:22:29.567Z,68.7
2016-02-25T09:23:29.585Z,68.89
2016-02-25T09:24:29.603Z,68.79
2016-02-25T09:25:29.637Z,69.08
2016-02-25T09:26:29.640Z,68.23
2016-02-25T09:27:29.642Z,68.13
2016-02-25T09:28:29.661Z,68.32
2016-02-25T09:29:29.679Z,68.41
2016-02-25T09:30:29.682Z,68.32
2016-02-25T09:31:29.700Z,68.32
2016-02-25T09:32:29.719Z,68.79
2016-02-25T09:33:29.722Z,68.41
2016-02-25T09:34:29.739Z,68.32
2016-02-25T09:35:29.775Z,67.94
2016-02-25T09:36:29.777Z,68.23
2016-02-25T09:37:29.795Z,69.08
2016-02-25T09:38:29.813Z,68.04
2016-02-25T09:39:29.816Z,68.89
2016-02-25T09:40:29.833Z,68.13
2016-02-25T09:41:29.852Z,68.04
2016-02-25T09:42:29.871Z,67.94
2016-02-25T09:43:29.874Z,68.13
2016-02-25T09:44:29.907Z,68.23
2016-02-25T09:45:29.910Z,68.13
2016-02-25T09:46:29.929Z,68.89
2016-02-25T09:47:29.947Z,69.17
2016-02-25T09:48:29.949Z,68.13
2016-02-25T09:49:29.968Z,68.7
2016-02-25T09:50:29.986Z,68.51
2016-02-25T09:51:30.020Z,68.32
2016-02-25T09:52:30.054Z,68.26
2016-02-25T09:53:30.026Z,67.88
2016-02-25T09:54:30.044Z,67.88
2016-02-25T09:55:30.062Z,67.5
2016-02-25T09:56:30.064Z,67.59
2016-02-25T09:57:30.084Z,67.31
2016-02-25T09:58:30.101Z,67.21
2016-02-25T09:59:30.120Z,67.4
2016-02-25T10:00:30.122Z,67.31
2016-02-25T10:01:30.156Z,67.31
2016-02-25T10:02:30.159Z,67.5
2016-02-25T10:03:30.162Z,67.5
2016-02-25T10:04:30.227Z,67.4
2016-02-25T10:05:30.245Z,67.31
2016-02-25T10:06:30.217Z,67.31
2016-02-25T10:07:30.219Z,67.21
2016-02-25T10:08:30.253Z,67.21
2016-02-25T10:09:30.272Z,68.16
2016-02-25T10:10:30.274Z,67.31
2016-02-25T10:11:30.308Z,67.4
2016-02-25T10:12:30.311Z,67.59
2016-02-25T10:13:30.329Z,67.5
2016-02-25T10:14:30.332Z,67.31
2016-02-25T10:15:30.366Z,67.5
2016-02-25T10:16:30.368Z,67.5
2016-02-25T10:17:30.387Z,67.21
2016-02-25T10:18:30.405Z,67.21
2016-02-25T10:19:30.408Z,67.12
2016-02-25T10:20:30.426Z,67.31
2016-02-25T10:21:30.444Z,67.5
2016-02-25T10:22:30.479Z,67.21
2016-02-25T10:23:30.559Z,68.26
2016-02-25T10:24:30.484Z,67.5
2016-02-25T10:25:30.502Z,67.88
2016-02-25T10:26:30.520Z,67.4
2016-02-25T10:27:30.539Z,67.31
2016-02-25T10:28:30.542Z,67.4
2016-02-25T10:29:30.559Z,67.59
2016-02-25T10:30:30.578Z,67.59
2016-02-25T10:31:30.596Z,67.4
2016-02-25T10:32:30.615Z,67.59
2016-02-25T10:33:30.617Z,66.55
2016-02-25T10:34:30.636Z,67.88
2016-02-25T10:35:30.654Z,67.02
2016-02-25T10:36:30.672Z,67.12
2016-02-25T10:37:30.691Z,67.12
2016-02-25T10:38:30.693Z,67.02
2016-02-25T10:39:30.711Z,67.12
2016-02-25T10:40:30.730Z,66.74
2016-02-25T10:41:30.733Z,67.31
2016-02-25T10:42:30.767Z,66.93
2016-02-25T10:43:30.786Z,66.93
2016-02-25T10:44:30.803Z,67.02
2016-02-25T10:45:30.806Z,66.64
2016-02-25T10:46:30.825Z,66.83
2016-02-25T10:47:30.827Z,66.93
2016-02-25T10:48:30.846Z,66.46
2016-02-25T10:49:30.863Z,66.74
2016-02-25T10:50:30.882Z,67.02
2016-02-25T10:51:30.885Z,66.74
2016-02-25T10:52:30.903Z,66.74
2016-02-25T10:53:30.921Z,66.36
2016-02-25T10:54:30.940Z,66.36
2016-02-25T10:55:30.957Z,66.87
2016-02-25T10:56:30.976Z,67.06
2016-02-25T10:57:30.979Z,67.31
2016-02-25T10:58:30.997Z,67.06
2016-02-25T10:59:31.032Z,67.15
2016-02-25T11:00:31.034Z,67.15
2016-02-25T11:01:31.052Z,66.96
2016-02-25T11:02:31.102Z,66.39
2016-02-25T11:03:31.073Z,66.87
2016-02-25T11:04:31.092Z,66.96
2016-02-25T11:05:31.313Z,66.67
2016-02-25T11:06:31.129Z,66.67
2016-02-25T11:07:31.148Z,66.58
2016-02-25T11:08:31.165Z,66.3
2016-02-25T11:09:31.184Z,66.39
2016-02-25T11:10:31.187Z,66.58
2016-02-25T11:11:31.205Z,67.06
2016-02-25T11:12:31.223Z,66.67
2016-02-25T11:13:31.226Z,66.96
2016-02-25T11:14:31.260Z,66.77
2016-02-25T11:15:31.262Z,67.06
2016-02-25T11:16:31.281Z,66.96
2016-02-25T11:17:31.300Z,67.06
2016-02-25T11:18:31.302Z,66.67
2016-02-25T11:19:31.336Z,66.77
2016-02-25T11:20:31.339Z,66.61
2016-02-25T11:21:31.357Z,66.71
2016-02-25T11:22:31.391Z,66.42
2016-02-25T11:23:31.379Z,66.61
2016-02-25T11:24:31.412Z,66.42
2016-02-25T11:25:31.414Z,66.33
2016-02-25T11:26:31.450Z,66.24
2016-02-25T11:27:31.452Z,66.05
2016-02-25T11:28:31.486Z,66.14
2016-02-25T11:29:31.488Z,66.33
2016-02-25T11:30:31.491Z,65.86
2016-02-25T11:31:31.524Z,66.05
2016-02-25T11:32:31.527Z,65.76
2016-02-25T11:33:31.546Z,65.38
2016-02-25T11:34:31.564Z,65.47
2016-02-25T11:35:31.582Z,65.38
2016-02-25T11:36:31.586Z,65.67
2016-02-25T11:37:31.604Z,65.41
2016-02-25T11:38:31.638Z,65.32
2016-02-25T11:39:31.641Z,65.28
2016-02-25T11:40:31.658Z,65.22
2016-02-25T11:41:31.661Z,65.32
2016-02-25T11:42:31.696Z,65.47
2016-02-25T11:43:31.713Z,65.6
2016-02-25T11:44:31.763Z,64.84
2016-02-25T11:45:31.751Z,64.46
2016-02-25T11:46:31.753Z,64.94
2016-02-25T11:47:31.771Z,65.03
2016-02-25T11:48:31.789Z,64.75
2016-02-25T11:49:31.807Z,64.27
2016-02-25T11:50:31.826Z,64.37
2016-02-25T11:51:31.860Z,63.99
2016-02-25T11:52:31.847Z,63.99
2016-02-25T11:53:31.865Z,63.7
2016-02-25T11:54:31.867Z,63.83
2016-02-25T11:55:31.902Z,62.97
2016-02-25T11:56:31.920Z,63.07
2016-02-25T11:57:31.923Z,63.26
2016-02-25T11:58:31.957Z,63.07
2016-02-25T11:59:31.959Z,62.69
2016-02-25T12:00:31.994Z,62.49
2016-02-25T12:01:31.997Z,62.12
2016-02-25T12:02:32.014Z,62.49
2016-02-25T12:03:32.033Z,61.93
2016-02-25T12:04:32.051Z,62.21
2016-02-25T12:05:32.070Z,61.93
2016-02-25T12:06:32.088Z,61.48
2016-02-25T12:07:32.091Z,61.64
2016-02-25T12:08:32.125Z,61.58
2016-02-25T12:09:32.127Z,61.38
2016-02-25T12:10:32.146Z,61.77
2016-02-25T12:11:32.164Z,61.67
2016-02-25T12:12:32.183Z,61.48
2016-02-25T12:13:32.232Z,61.58
2016-02-25T12:14:32.079Z,61.48
2016-02-25T12:15:32.253Z,61.19
2016-02-25T12:16:32.255Z,61.48
2016-02-25T12:17:32.274Z,61.1
2016-02-25T12:18:32.293Z,61.77
2016-02-25T12:19:32.326Z,61.48
2016-02-25T12:20:32.329Z,61.29
2016-02-25T12:21:32.347Z,61.38
2016-02-25T12:22:32.350Z,61.38
2016-02-25T12:23:32.368Z,61.67
2016-02-25T12:24:32.448Z,60.82
2016-02-25T12:25:32.420Z,61.19
2016-02-25T12:26:32.422Z,60.91
2016-02-25T12:27:32.472Z,61.1
2016-02-25T12:28:32.459Z,61.29
2016-02-25T12:29:32.478Z,61.1
2016-02-25T12:30:32.340Z,60.91
2016-02-25T12:31:32.531Z,60.91
2016-02-25T12:32:32.533Z,60.91
2016-02-25T12:33:32.551Z,60.91
2016-02-25T12:34:32.553Z,61
2016-02-25T12:35:32.588Z,60.91
2016-02-25T12:36:32.591Z,60.72
2016-02-25T12:37:32.609Z,61.19
2016-02-25T12:38:32.644Z,61.1
2016-02-25T12:39:32.646Z,60.82
2016-02-25T12:40:32.664Z,61.1
2016-02-25T12:41:32.682Z,60.91
2016-02-25T12:42:32.700Z,60.82
2016-02-25T12:43:32.719Z,61.1
2016-02-25T12:44:32.737Z,60.44
2016-02-25T12:45:32.755Z,59.96
2016-02-25T12:46:32.773Z,59.67
2016-02-25T12:47:32.792Z,59.86
2016-02-25T12:48:32.810Z,59.48
2016-02-25T12:49:32.829Z,60.15
2016-02-25T12:50:32.832Z,59.58
2016-02-25T12:51:32.865Z,60.05
2016-02-25T12:52:32.868Z,59.96
2016-02-25T12:53:32.902Z,60.15
2016-02-25T12:54:32.905Z,60.63
2016-02-25T12:55:32.939Z,60.34